Terminal Aerodrome Forecast
Issued by NWS Jackson, MS

Home | Current Version | Previous Version | Text Only | Print | Product List | Glossary On
Versions: 1 2 3 4 5 6 7 8 9 10 11 12 13 14
000
FTUS44 KJAN 290546
TAFGLH
TAF
KGLH 290546Z 2906/3006 12005KT P6SM SCT035 BKN050
     FM291300 14007KT P6SM BKN015
     FM291600 17015G22KT P6SM SCT025 SCT045=

USA.gov is the U.S. government's official web portal to all federal, state and local government web resources and services.